Time;durP1;ratioP1;P1;durP2;ratioP2;P2;SDS_P1;SDS_P2;PMS_P1;PMS_P2;Temp;Humidity;BMP_temperature;BMP_pressure;BME280_temperature;BME280_humidity;BME280_pressure;Samples;Min_cycle;Max_cycle;Signal;HPM_P1;HPM_P2
2022/05/26 00:02:24;;;;;;;1.02;0.32;;;16.60;65.10;;;;;;5076931;28;20059;-74
2022/05/26 00:04:52;;;;;;;0.55;0.30;;;16.60;65.00;;;;;;5078902;28;20090;-69
2022/05/26 00:07:19;;;;;;;1.85;0.50;;;16.60;64.90;;;;;;5081041;28;20471;-73
2022/05/26 00:09:46;;;;;;;0.82;0.20;;;16.60;64.90;;;;;;5075762;28;20098;-67
2022/05/26 00:12:14;;;;;;;1.48;0.40;;;16.60;65.10;;;;;;5078508;28;20037;-69
2022/05/26 00:14:41;;;;;;;1.83;0.40;;;16.60;65.00;;;;;;5079418;28;20074;-69
2022/05/26 00:17:08;;;;;;;0.90;0.40;;;16.60;65.20;;;;;;5078710;28;20594;-69
2022/05/26 00:19:37;;;;;;;0.90;0.43;;;16.60;65.20;;;;;;5079379;28;20044;-72
2022/05/26 00:22:05;;;;;;;1.58;0.40;;;16.60;65.40;;;;;;5079266;28;20044;-70
2022/05/26 00:24:32;;;;;;;3.53;0.43;;;16.60;65.30;;;;;;5079623;28;20123;-68
2022/05/26 00:26:59;;;;;;;0.90;0.30;;;16.60;65.40;;;;;;5079473;28;20063;-69
2022/05/26 00:29:26;;;;;;;1.00;0.47;;;16.60;65.70;;;;;;5081257;28;20584;-69
2022/05/26 00:31:54;;;;;;;1.02;0.52;;;16.50;65.60;;;;;;5076776;28;20032;-71
2022/05/26 00:34:21;;;;;;;1.17;0.52;;;16.60;65.60;;;;;;5077164;28;20044;-69
2022/05/26 00:36:49;;;;;;;2.75;0.85;;;16.50;66.10;;;;;;5065656;28;20515;-71
2022/05/26 00:39:19;;;;;;;1.30;0.35;;;16.50;66.30;;;;;;5048058;28;20045;-69
2022/05/26 00:41:48;;;;;;;;;;;16.50;66.50;;;;;;5050977;28;20120;-69
2022/05/26 00:44:16;;;;;;;1.15;0.50;;;16.50;66.40;;;;;;5052681;28;19932;-70
2022/05/26 00:46:50;;;;;;;0.95;0.40;;;16.50;66.30;;;;;;5068748;28;20050;-69
2022/05/26 00:49:23;;;;;;;2.80;0.55;;;16.60;66.20;;;;;;5068234;28;20048;-74
2022/05/26 00:51:52;;;;;;;1.95;0.50;;;16.60;66.10;;;;;;5065461;28;20431;-69
2022/05/26 00:54:24;;;;;;;2.35;0.38;;;16.60;66.20;;;;;;5067212;28;20075;-73
2022/05/26 00:56:55;;;;;;;2.90;0.70;;;16.60;66.20;;;;;;5066069;28;20123;-72
2022/05/26 00:59:31;;;;;;;3.45;0.88;;;16.60;66.50;;;;;;5068183;28;20041;-70
2022/05/26 01:01:59;;;;;;;4.20;0.65;;;16.60;66.60;;;;;;5061520;28;20043;-73
2022/05/26 01:04:31;;;;;;;1.35;0.40;;;16.60;67.00;;;;;;5068692;28;20055;-69
2022/05/26 01:07:06;;;;;;;1.58;0.52;;;16.50;66.80;;;;;;5065212;28;20040;-72
2022/05/26 01:09:33;;;;;;;2.50;0.95;;;16.60;66.40;;;;;;5068897;28;20055;-69
2022/05/26 01:12:00;;;;;;;1.05;0.50;;;16.50;66.20;;;;;;5064252;28;20119;-70
2022/05/26 01:14:31;;;;;;;2.33;0.63;;;16.60;65.90;;;;;;5070169;28;20047;-68
2022/05/26 01:17:09;;;;;;;3.92;0.40;;;16.60;65.40;;;;;;5067170;28;20040;-72
2022/05/26 01:20:09;;;;;;;1.17;0.60;;;16.60;65.60;;;;;;5068190;28;20068;-68
2022/05/26 01:23:00;;;;;;;1.77;0.50;;;16.60;65.40;;;;;;5065639;28;20470;-72
2022/05/26 01:26:08;;;;;;;0.90;0.40;;;16.60;65.30;;;;;;5073299;28;20047;-67
2022/05/26 01:29:00;;;;;;;1.10;0.50;;;16.60;65.10;;;;;;5069759;28;20078;-67
2022/05/26 01:31:40;;;;;;;1.73;0.30;;;16.50;65.20;;;;;;5072944;28;20120;-70
2022/05/26 01:34:14;;;;;;;3.08;0.50;;;16.60;65.40;;;;;;5067970;28;20098;-71
2022/05/26 01:36:48;;;;;;;1.50;0.60;;;16.60;65.10;;;;;;5068407;28;20583;-69
2022/05/26 01:39:23;;;;;;;1.00;0.30;;;16.60;65.50;;;;;;5064814;28;20106;-69
2022/05/26 01:42:02;;;;;;;1.90;0.70;;;16.60;65.60;;;;;;5067304;28;20127;-74
2022/05/26 01:44:40;;;;;;;0.87;0.37;;;16.60;65.50;;;;;;5069909;28;20102;-70
2022/05/26 01:47:15;;;;;;;1.98;0.50;;;16.60;65.50;;;;;;5064735;28;20131;-70
2022/05/26 01:49:46;;;;;;;1.52;0.60;;;16.60;65.70;;;;;;5066364;28;20040;-73
2022/05/26 01:52:17;;;;;;;2.03;0.50;;;16.60;65.30;;;;;;5062106;28;20611;-71
2022/05/26 01:54:49;;;;;;;1.73;0.68;;;16.60;65.20;;;;;;5068775;28;20499;-73
2022/05/26 01:57:23;;;;;;;1.38;0.52;;;16.60;65.00;;;;;;5071908;28;20512;-67
2022/05/26 01:59:55;;;;;;;1.77;0.65;;;16.60;65.00;;;;;;5073220;28;20369;-69
2022/05/26 02:02:27;;;;;;;2.35;0.88;;;16.60;65.10;;;;;;5065006;28;21003;-67
2022/05/26 02:04:57;;;;;;;1.52;0.45;;;16.60;65.10;;;;;;5066574;28;20038;-72
2022/05/26 02:07:30;;;;;;;0.82;0.30;;;16.60;64.70;;;;;;5077815;28;20049;-71
2022/05/26 02:10:03;;;;;;;2.00;0.38;;;16.60;64.80;;;;;;5073767;28;20515;-69
2022/05/26 02:12:33;;;;;;;1.08;0.60;;;16.60;64.70;;;;;;5075867;28;20075;-74
2022/05/26 02:15:02;;;;;;;;;;;16.50;64.80;;;;;;5078053;28;20124;-70
2022/05/26 02:17:33;;;;;;;1.35;0.52;;;16.60;65.00;;;;;;5077318;28;20432;-69
2022/05/26 02:20:07;;;;;;;0.98;0.47;;;16.60;65.30;;;;;;5069251;28;20750;-69
2022/05/26 02:22:39;;;;;;;1.13;0.45;;;16.60;65.00;;;;;;5074910;28;20495;-73
2022/05/26 02:25:09;;;;;;;1.83;0.45;;;16.60;65.20;;;;;;5064472;28;20526;-70
2022/05/26 02:27:38;;;;;;;1.40;0.20;;;16.60;64.80;;;;;;5070807;28;20048;-70
2022/05/26 02:30:06;;;;;;;2.08;0.60;;;16.60;64.80;;;;;;5066863;28;20048;-71
2022/05/26 02:32:37;;;;;;;1.13;0.30;;;16.60;64.60;;;;;;5062899;28;20136;-68
2022/05/26 02:35:08;;;;;;;0.45;0.38;;;16.60;64.30;;;;;;5067387;28;20688;-70
2022/05/26 02:37:38;;;;;;;2.03;0.50;;;16.60;64.20;;;;;;5067205;28;20060;-70
2022/05/26 02:40:06;;;;;;;1.60;0.30;;;16.60;64.30;;;;;;5068748;28;20518;-71
2022/05/26 02:42:34;;;;;;;1.23;0.40;;;16.60;64.30;;;;;;5068276;28;20048;-70
2022/05/26 02:45:01;;;;;;;0.60;0.40;;;16.60;64.20;;;;;;5067907;28;20119;-72
2022/05/26 02:47:53;;;;;;;1.00;0.40;;;16.60;64.30;;;;;;5067226;28;20055;-71
2022/05/26 02:50:33;;;;;;;0.82;0.40;;;16.60;64.30;;;;;;5068746;28;20142;-70
2022/05/26 02:53:07;;;;;;;2.25;0.43;;;16.60;64.20;;;;;;5066088;28;20408;-69
2022/05/26 02:55:47;;;;;;;1.27;0.47;;;16.60;64.10;;;;;;5071141;28;20127;-70
2022/05/26 02:58:23;;;;;;;1.40;0.40;;;16.60;64.10;;;;;;5071439;28;20044;-71
2022/05/26 03:00:57;;;;;;;1.10;0.40;;;16.60;64.10;;;;;;5070229;28;20150;-71
2022/05/26 03:03:33;;;;;;;2.17;0.40;;;16.60;63.90;;;;;;5074731;28;20072;-67
2022/05/26 03:06:05;;;;;;;0.60;0.30;;;16.60;63.90;;;;;;5071422;28;20048;-71
2022/05/26 03:08:36;;;;;;;1.48;0.40;;;16.60;63.90;;;;;;5072301;28;20663;-73
2022/05/26 03:11:08;;;;;;;1.40;0.50;;;16.60;63.90;;;;;;5077915;28;20539;-69
2022/05/26 03:13:35;;;;;;;1.85;0.50;;;16.60;63.90;;;;;;5071689;28;20044;-72
2022/05/26 03:16:03;;;;;;;2.20;0.43;;;16.60;63.90;;;;;;5069041;28;20073;-71
2022/05/26 03:18:31;;;;;;;1.38;0.50;;;16.60;63.90;;;;;;5071818;28;20068;-70
2022/05/26 03:21:00;;;;;;;1.55;0.47;;;16.60;63.90;;;;;;5067231;28;20051;-71
2022/05/26 03:23:27;;;;;;;0.90;0.38;;;16.60;63.80;;;;;;5075239;28;20044;-70
2022/05/26 03:25:55;;;;;;;1.48;0.40;;;16.60;63.80;;;;;;5069099;28;20044;-73
2022/05/26 03:28:23;;;;;;;1.02;0.30;;;16.60;63.50;;;;;;5080428;28;20037;-69
2022/05/26 03:30:50;;;;;;;2.83;0.80;;;16.60;63.60;;;;;;5080417;28;20052;-70
2022/05/26 03:33:17;;;;;;;0.40;0.30;;;16.60;63.60;;;;;;5080726;28;20050;-69
2022/05/26 03:41:16;;;;;;;1.30;0.30;;;16.60;63.50;;;;;;5080218;28;20036;-69
2022/05/26 03:43:45;;;;;;;1.27;0.40;;;16.60;63.60;;;;;;5077341;28;20056;-68
2022/05/26 03:46:13;;;;;;;1.17;0.53;;;16.50;63.70;;;;;;5078896;28;20052;-69
2022/05/26 03:48:43;;;;;;;1.42;0.40;;;16.60;63.70;;;;;;5078946;28;20501;-68
2022/05/26 03:51:11;;;;;;;;;;;16.60;63.80;;;;;;5072213;28;20509;-73
2022/05/26 03:53:38;;;;;;;1.02;0.40;;;16.60;63.80;;;;;;5082694;28;20295;-70
2022/05/26 03:56:06;;;;;;;1.42;0.50;;;16.50;63.90;;;;;;5078302;28;20513;-69
2022/05/26 03:58:35;;;;;;;2.25;0.32;;;16.60;63.90;;;;;;5078883;28;20495;-70
2022/05/26 04:01:03;;;;;;;1.33;0.45;;;16.60;63.90;;;;;;5076547;28;20459;-69
2022/05/26 04:03:30;;;;;;;2.08;0.40;;;16.60;63.90;;;;;;5078632;28;20566;-71
2022/05/26 04:05:57;;;;;;;0.93;0.47;;;16.60;63.90;;;;;;5079303;28;20247;-70
2022/05/26 04:08:26;;;;;;;0.88;0.40;;;16.50;64.00;;;;;;5076311;28;20048;-71
2022/05/26 04:10:53;;;;;;;1.87;0.50;;;16.60;64.00;;;;;;5078669;28;20505;-71
2022/05/26 04:13:21;;;;;;;2.30;0.30;;;16.60;64.10;;;;;;5072760;28;20040;-70
2022/05/26 04:15:48;;;;;;;0.90;0.30;;;16.60;64.10;;;;;;5079103;28;20515;-69
2022/05/26 04:18:15;;;;;;;2.15;0.47;;;16.60;64.10;;;;;;5078252;28;20054;-68
2022/05/26 04:20:42;;;;;;;2.45;0.57;;;16.60;64.00;;;;;;5078734;28;20551;-71
2022/05/26 04:23:10;;;;;;;2.10;0.30;;;16.60;63.90;;;;;;5079147;28;20082;-69
2022/05/26 04:25:38;;;;;;;1.30;0.40;;;16.60;63.80;;;;;;5078900;28;20075;-68
2022/05/26 04:28:05;;;;;;;0.80;0.35;;;16.60;63.80;;;;;;5077280;28;20067;-68
2022/05/26 04:30:32;;;;;;;0.90;0.45;;;16.60;63.90;;;;;;5077711;28;20136;-68
2022/05/26 04:32:59;;;;;;;1.38;0.43;;;16.60;63.80;;;;;;5067153;28;20049;-70
2022/05/26 04:35:26;;;;;;;0.60;0.30;;;16.60;63.80;;;;;;5080109;28;20055;-69
2022/05/26 04:37:53;;;;;;;0.75;0.40;;;16.60;63.80;;;;;;5075355;28;20090;-71
2022/05/26 04:40:20;;;;;;;2.50;0.50;;;16.60;63.80;;;;;;5080673;28;20050;-71
2022/05/26 04:42:49;;;;;;;0.90;0.47;;;16.60;63.90;;;;;;5076545;28;20421;-73
2022/05/26 04:45:16;;;;;;;1.50;0.50;;;16.60;63.90;;;;;;5079141;28;20054;-72
2022/05/26 04:47:43;;;;;;;0.80;0.35;;;16.60;63.90;;;;;;5079229;28;20052;-72
2022/05/26 04:50:11;;;;;;;1.13;0.40;;;16.60;64.00;;;;;;5077960;28;20040;-70
2022/05/26 04:52:38;;;;;;;0.50;0.30;;;16.60;64.00;;;;;;5077559;28;20044;-70
2022/05/26 04:55:07;;;;;;;0.50;0.30;;;16.60;64.10;;;;;;5074815;28;20035;-72
2022/05/26 04:57:34;;;;;;;2.15;0.40;;;16.70;64.00;;;;;;5070205;28;20620;-67
2022/05/26 05:00:04;;;;;;;1.83;0.50;;;16.60;64.00;;;;;;5066477;28;20043;-68
2022/05/26 05:02:32;;;;;;;0.35;0.28;;;16.70;64.10;;;;;;5069117;28;20037;-69
2022/05/26 05:04:59;;;;;;;2.10;0.40;;;16.70;64.10;;;;;;5069443;28;20033;-68
2022/05/26 05:07:26;;;;;;;2.20;0.70;;;16.70;64.10;;;;;;5067561;28;20049;-70
2022/05/26 05:09:53;;;;;;;3.80;0.30;;;16.80;64.00;;;;;;5066803;28;20044;-69
2022/05/26 05:12:22;;;;;;;2.67;0.60;;;16.80;64.00;;;;;;5066352;28;20051;-68
2022/05/26 05:14:52;;;;;;;0.50;0.28;;;16.80;64.10;;;;;;5072641;28;20072;-68
2022/05/26 05:17:22;;;;;;;2.30;0.32;;;16.80;64.30;;;;;;5079059;28;20515;-68
2022/05/26 05:19:49;;;;;;;;;;;16.80;64.40;;;;;;5077683;28;20040;-68
2022/05/26 05:22:21;;;;;;;1.45;0.68;;;16.80;64.30;;;;;;5077462;28;20372;-71
2022/05/26 05:24:53;;;;;;;0.47;0.28;;;16.80;64.40;;;;;;5072522;28;20059;-70
2022/05/26 05:27:25;;;;;;;0.40;0.20;;;16.80;64.30;;;;;;5079843;28;20041;-69
2022/05/26 05:29:54;;;;;;;0.50;0.30;;;16.90;64.20;;;;;;5077855;28;20041;-69
2022/05/26 05:32:26;;;;;;;0.90;0.40;;;16.90;64.10;;;;;;5079914;28;20051;-68
2022/05/26 05:34:57;;;;;;;0.68;0.40;;;16.90;64.10;;;;;;5078717;28;20479;-68
2022/05/26 05:37:24;;;;;;;1.63;0.38;;;16.90;64.10;;;;;;5077574;28;20051;-70
2022/05/26 05:39:51;;;;;;;0.63;0.30;;;16.90;64.20;;;;;;5076031;28;20048;-69
2022/05/26 05:42:18;;;;;;;1.52;0.35;;;17.00;64.10;;;;;;5076580;28;20053;-69
2022/05/26 05:44:47;;;;;;;0.82;0.30;;;17.00;64.10;;;;;;5059883;28;20098;-70
2022/05/26 05:47:14;;;;;;;2.15;0.30;;;17.00;64.00;;;;;;5077258;28;20048;-68
2022/05/26 05:49:42;;;;;;;1.30;0.63;;;17.10;63.90;;;;;;5077279;28;20040;-69
2022/05/26 05:52:12;;;;;;;1.85;0.32;;;17.10;63.90;;;;;;5076179;28;20092;-70
2022/05/26 05:54:40;;;;;;;0.77;0.30;;;17.10;63.80;;;;;;5076156;28;20066;-75
2022/05/26 05:57:07;;;;;;;1.15;0.20;;;17.10;63.80;;;;;;5079446;28;20051;-74
2022/05/26 05:59:34;;;;;;;0.98;0.38;;;17.10;63.90;;;;;;5073113;28;20438;-69
2022/05/26 06:02:02;;;;;;;1.13;0.30;;;17.20;64.00;;;;;;5068888;28;20047;-72
2022/05/26 06:04:29;;;;;;;1.17;0.32;;;17.20;64.00;;;;;;5075588;28;20054;-70
2022/05/26 06:06:59;;;;;;;2.47;0.63;;;17.30;64.00;;;;;;5070629;28;20451;-71
2022/05/26 06:09:26;;;;;;;0.93;0.40;;;17.30;63.90;;;;;;5075757;28;20048;-69
2022/05/26 06:11:53;;;;;;;2.70;0.60;;;17.40;63.70;;;;;;5071494;28;20119;-71
2022/05/26 06:14:20;;;;;;;0.82;0.20;;;17.40;63.60;;;;;;5076013;28;20044;-72
2022/05/26 06:16:47;;;;;;;0.65;0.38;;;17.40;63.60;;;;;;5076276;28;20403;-69
2022/05/26 06:19:14;;;;;;;0.32;0.30;;;17.40;63.60;;;;;;5076246;28;20050;-70
2022/05/26 06:21:42;;;;;;;0.65;0.40;;;17.50;63.70;;;;;;5076948;28;20044;-71
2022/05/26 06:24:11;;;;;;;1.73;0.28;;;17.50;63.70;;;;;;5078110;28;20138;-70
2022/05/26 06:26:38;;;;;;;1.35;0.32;;;17.50;63.60;;;;;;5074688;28;20080;-70
2022/05/26 06:37:27;;;;;;;3.33;0.20;;;17.70;63.60;;;;;;5078053;28;20072;-69
2022/05/26 06:39:56;;;;;;;0.32;0.20;;;17.80;63.20;;;;;;5077687;28;20105;-71
2022/05/26 06:42:24;;;;;;;1.63;0.40;;;17.80;63.30;;;;;;5075624;28;20049;-73
2022/05/26 06:44:52;;;;;;;2.20;0.40;;;17.90;63.30;;;;;;5078522;28;20132;-72
2022/05/26 06:47:21;;;;;;;2.45;0.47;;;17.90;63.10;;;;;;5075473;28;20483;-71
2022/05/26 06:49:49;;;;;;;3.23;0.63;;;18.00;62.80;;;;;;5076541;28;20048;-72
2022/05/26 06:52:18;;;;;;;1.80;0.38;;;18.10;62.60;;;;;;5076283;28;20454;-73
2022/05/26 06:54:46;;;;;;;0.95;0.43;;;18.10;62.60;;;;;;5075888;28;20072;-71
2022/05/26 06:57:16;;;;;;;0.65;0.20;;;18.20;62.40;;;;;;5076489;28;20454;-70
2022/05/26 06:59:44;;;;;;;2.03;0.40;;;18.20;62.30;;;;;;5079244;28;20098;-72
2022/05/26 07:02:13;;;;;;;1.67;0.22;;;18.30;62.10;;;;;;5071788;28;20089;-73
2022/05/26 07:04:42;;;;;;;0.65;0.30;;;18.30;62.20;;;;;;5071211;28;20048;-70
2022/05/26 07:07:09;;;;;;;1.02;0.40;;;18.30;62.50;;;;;;5076061;28;20044;-70
2022/05/26 07:09:36;;;;;;;2.28;0.40;;;18.30;62.40;;;;;;5075614;28;20399;-70
2022/05/26 07:12:04;;;;;;;2.47;0.55;;;18.30;62.20;;;;;;5074168;28;20044;-73
2022/05/26 07:14:32;;;;;;;1.52;0.20;;;18.30;62.30;;;;;;5072109;28;20062;-73
2022/05/26 07:16:59;;;;;;;0.17;0.10;;;18.40;61.90;;;;;;5073047;28;20041;-71
2022/05/26 07:19:27;;;;;;;1.63;0.20;;;18.30;61.90;;;;;;5075937;28;20052;-74
2022/05/26 07:21:54;;;;;;;0.20;0.15;;;18.40;61.90;;;;;;5078171;28;20086;-70
2022/05/26 07:24:23;;;;;;;1.98;0.20;;;18.40;61.70;;;;;;5072393;28;20131;-70
2022/05/26 07:26:51;;;;;;;2.50;0.30;;;18.40;61.50;;;;;;5077156;28;20119;-75
2022/05/26 07:29:19;;;;;;;2.05;0.20;;;18.40;61.50;;;;;;5077451;28;20487;-70
2022/05/26 07:31:48;;;;;;;1.33;0.35;;;18.40;61.60;;;;;;5076875;28;20055;-71
2022/05/26 07:34:15;;;;;;;0.40;0.20;;;18.40;61.70;;;;;;5076234;28;20495;-70
2022/05/26 07:42:14;;;;;;;0.30;0.20;;;18.50;61.90;;;;;;5075376;28;20553;-70
2022/05/26 07:44:44;;;;;;;0.35;0.20;;;18.50;62.00;;;;;;5077260;28;20123;-69
2022/05/26 07:47:13;;;;;;;1.17;0.38;;;18.50;62.20;;;;;;5080224;28;20542;-71
2022/05/26 07:49:42;;;;;;;1.38;0.20;;;18.60;62.20;;;;;;5077715;28;20471;-73
2022/05/26 07:52:10;;;;;;;0.20;0.20;;;18.70;62.00;;;;;;5071952;28;20037;-72
2022/05/26 07:54:37;;;;;;;1.48;0.25;;;18.80;61.60;;;;;;5069602;28;20105;-73
2022/05/26 07:57:06;;;;;;;1.88;0.30;;;18.80;61.30;;;;;;5069432;28;20048;-72
2022/05/26 07:59:33;;;;;;;0.50;0.20;;;18.90;61.10;;;;;;5081121;28;20047;-69
2022/05/26 08:02:00;;;;;;;1.52;0.30;;;19.10;60.90;;;;;;5065670;28;20060;-69
2022/05/26 08:04:28;;;;;;;2.00;0.30;;;19.30;60.70;;;;;;5081418;28;20040;-75
2022/05/26 08:06:55;;;;;;;3.67;0.20;;;19.50;60.40;;;;;;5079109;28;20053;-71
2022/05/26 08:09:23;;;;;;;1.45;0.20;;;19.60;60.10;;;;;;5080779;28;20118;-70
2022/05/26 08:11:50;;;;;;;1.30;0.10;;;19.90;59.20;;;;;;5079190;28;20046;-73
2022/05/26 08:14:17;;;;;;;1.48;0.30;;;20.00;59.00;;;;;;5072759;28;20045;-68
2022/05/26 08:16:44;;;;;;;0.57;0.17;;;20.10;58.10;;;;;;5065694;28;20052;-69
2022/05/26 08:19:11;;;;;;;0.40;0.20;;;20.20;57.90;;;;;;5070293;28;20106;-71
2022/05/26 08:21:40;;;;;;;1.30;0.35;;;20.10;57.90;;;;;;5070848;28;20036;-72
2022/05/26 08:24:08;;;;;;;0.45;0.30;;;20.20;58.20;;;;;;5068164;28;20058;-71
2022/05/26 08:26:35;;;;;;;0.50;0.40;;;20.50;57.60;;;;;;5066132;28;20426;-72
2022/05/26 08:29:02;;;;;;;2.15;0.30;;;20.70;57.50;;;;;;5068393;28;20124;-70
2022/05/26 08:31:29;;;;;;;1.58;0.28;;;20.80;56.40;;;;;;5067814;28;21542;-74
2022/05/26 08:33:56;;;;;;;2.25;0.40;;;20.80;55.70;;;;;;5069990;28;20527;-70
2022/05/26 08:36:25;;;;;;;1.02;0.32;;;20.70;56.00;;;;;;5068930;28;20036;-71
2022/05/26 08:38:55;;;;;;;1.20;0.43;;;20.60;55.90;;;;;;5069640;28;20047;-71
2022/05/26 08:41:25;;;;;;;0.45;0.20;;;20.50;55.90;;;;;;5071200;28;20590;-70
2022/05/26 08:43:55;;;;;;;2.95;0.50;;;20.40;56.30;;;;;;5069847;28;20053;-70
2022/05/26 08:46:24;;;;;;;1.02;0.38;;;20.40;56.40;;;;;;5065781;28;20045;-74
2022/05/26 08:48:57;;;;;;;0.38;0.22;;;20.40;55.90;;;;;;5069241;28;20293;-71
2022/05/26 08:51:40;;;;;;;1.85;0.40;;;20.40;55.50;;;;;;5060501;28;20696;-70
2022/05/26 08:54:15;;;;;;;2.25;0.85;;;20.30;55.70;;;;;;5069024;28;20124;-68
2022/05/26 08:56:44;;;;;;;1.23;0.13;;;20.40;55.50;;;;;;5066215;28;20054;-73
2022/05/26 08:59:14;;;;;;;1.02;0.20;;;20.40;55.70;;;;;;5067339;28;20617;-70
2022/05/26 09:01:41;;;;;;;1.38;0.40;;;20.40;55.70;;;;;;5063212;28;20067;-76
2022/05/26 09:04:10;;;;;;;0.88;0.50;;;20.40;55.80;;;;;;5064619;28;20036;-69
2022/05/26 09:15:02;;;;;;;2.72;0.40;;;20.10;56.70;;;;;;5066262;28;20055;-68
2022/05/26 09:17:30;;;;;;;;;;;20.00;56.40;;;;;;5075634;28;20591;-67
2022/05/26 09:19:58;;;;;;;1.63;0.30;;;19.90;56.60;;;;;;5074363;28;20367;-70
2022/05/26 09:22:28;;;;;;;0.40;0.20;;;19.80;56.60;;;;;;5062056;28;20036;-70
2022/05/26 09:24:57;;;;;;;2.00;0.30;;;19.80;56.60;;;;;;5063417;28;20048;-68
2022/05/26 09:27:28;;;;;;;1.00;0.30;;;19.90;56.70;;;;;;5069365;28;20083;-70
2022/05/26 09:29:56;;;;;;;3.33;0.90;;;19.90;56.90;;;;;;5063698;28;20475;-72
2022/05/26 09:32:31;;;;;;;1.42;0.60;;;20.00;57.00;;;;;;5062377;28;20411;-70
2022/05/26 09:35:07;;;;;;;2.65;0.68;;;20.10;57.00;;;;;;5071190;28;20466;-69
2022/05/26 09:37:39;;;;;;;2.45;0.70;;;20.10;57.10;;;;;;5070271;28;20040;-70
2022/05/26 09:40:20;;;;;;;3.47;0.90;;;20.20;57.00;;;;;;5067473;28;20052;-69
2022/05/26 09:42:51;;;;;;;2.03;0.63;;;20.20;56.80;;;;;;5067169;28;20053;-71
2022/05/26 09:45:20;;;;;;;1.33;0.45;;;20.10;56.80;;;;;;5066289;28;20052;-71
2022/05/26 09:47:53;;;;;;;1.15;0.40;;;20.10;57.00;;;;;;5064968;28;20083;-70
2022/05/26 09:50:48;;;;;;;1.42;0.65;;;20.10;57.10;;;;;;5064522;28;20119;-71
2022/05/26 09:53:29;;;;;;;0.85;0.22;;;20.10;57.10;;;;;;5071591;28;20036;-69
2022/05/26 09:55:58;;;;;;;1.73;0.45;;;20.30;57.50;;;;;;5066498;28;20052;-70
2022/05/26 09:58:29;;;;;;;1.33;0.30;;;20.50;57.20;;;;;;5068552;28;20040;-69
2022/05/26 10:01:01;;;;;;;2.38;0.52;;;20.90;55.60;;;;;;5068342;28;20131;-70
2022/05/26 10:03:45;;;;;;;1.50;0.63;;;21.10;54.40;;;;;;5066331;28;20427;-68
2022/05/26 10:06:25;;;;;;;2.85;0.40;;;21.20;54.00;;;;;;5066469;28;20045;-74
2022/05/26 10:09:12;;;;;;;2.97;0.63;;;21.20;53.60;;;;;;5069987;28;20060;-74
2022/05/26 10:12:10;;;;;;;1.85;0.47;;;21.20;53.70;;;;;;5062994;28;20789;-73
2022/05/26 10:14:51;;;;;;;4.00;0.47;;;21.20;53.40;;;;;;5078454;28;20492;-69
2022/05/26 10:17:26;;;;;;;1.45;0.40;;;21.20;52.90;;;;;;5077747;28;20037;-69
2022/05/26 10:20:17;;;;;;;1.45;0.55;;;21.20;52.40;;;;;;5067895;28;22018;-70
2022/05/26 10:22:51;;;;;;;0.73;0.32;;;21.10;52.50;;;;;;5069010;28;20050;-71
2022/05/26 10:25:27;;;;;;;1.02;0.30;;;20.90;53.00;;;;;;5066440;28;20045;-71
2022/05/26 10:28:20;;;;;;;1.55;0.40;;;20.70;53.40;;;;;;5067681;28;20148;-70
2022/05/26 10:30:59;;;;;;;1.23;0.45;;;20.50;53.60;;;;;;5063686;28;20044;-70
2022/05/26 10:33:42;;;;;;;1.58;0.40;;;20.40;53.90;;;;;;5064213;28;20052;-69
2022/05/26 10:36:20;;;;;;;1.95;0.40;;;20.40;54.10;;;;;;5064335;28;20051;-70
2022/05/26 10:39:01;;;;;;;3.63;0.30;;;20.40;54.10;;;;;;5062391;28;20052;-70
2022/05/26 10:41:35;;;;;;;1.77;0.40;;;20.40;54.10;;;;;;5066504;28;20047;-70
2022/05/26 10:44:11;;;;;;;1.63;0.55;;;20.60;54.10;;;;;;5066095;28;20045;-70
2022/05/26 10:46:43;;;;;;;2.10;0.40;;;20.70;54.00;;;;;;5067301;28;20055;-70
2022/05/26 10:49:17;;;;;;;1.80;0.50;;;20.90;53.90;;;;;;5065908;28;20133;-70
2022/05/26 10:51:50;;;;;;;4.05;0.45;;;21.10;53.50;;;;;;5066902;28;20127;-69
2022/05/26 10:54:23;;;;;;;0.22;0.20;;;21.20;52.60;;;;;;5068569;28;20037;-69
2022/05/26 10:56:58;;;;;;;1.33;0.40;;;21.40;52.10;;;;;;5070139;28;20056;-70
2022/05/26 10:59:32;;;;;;;0.70;0.40;;;21.50;51.90;;;;;;5069454;28;20341;-69
2022/05/26 11:02:03;;;;;;;2.40;0.30;;;21.60;51.90;;;;;;5064528;28;20044;-69
2022/05/26 11:04:36;;;;;;;2.38;0.50;;;21.60;51.50;;;;;;5069296;28;20049;-71
2022/05/26 11:07:07;;;;;;;0.20;0.20;;;21.60;51.40;;;;;;5066756;28;20072;-69
2022/05/26 11:09:38;;;;;;;3.08;0.60;;;21.50;51.70;;;;;;5059439;28;20054;-69
2022/05/26 11:12:09;;;;;;;1.55;0.35;;;21.50;51.60;;;;;;5065631;28;20502;-71
2022/05/26 11:17:44;;;;;;;0.98;0.45;;;21.50;51.40;;;;;;5069992;28;20044;-72
2022/05/26 11:20:19;;;;;;;1.52;0.77;;;21.50;51.50;;;;;;5068986;28;20101;-72
2022/05/26 11:22:46;;;;;;;0.65;0.40;;;21.60;51.10;;;;;;5069910;28;20583;-74
2022/05/26 11:25:16;;;;;;;1.65;0.32;;;21.60;50.70;;;;;;5069837;28;20437;-71
2022/05/26 11:27:45;;;;;;;;;;;21.70;50.60;;;;;;5073766;28;20048;-71
2022/05/26 11:38:35;;;;;;;1.35;0.50;;;21.80;49.60;;;;;;5071120;28;20049;-74
2022/05/26 11:41:08;;;;;;;0.47;0.30;;;21.80;49.30;;;;;;5067979;28;20052;-71
2022/05/26 11:43:44;;;;;;;2.58;0.60;;;21.80;48.80;;;;;;5070814;28;20531;-70
2022/05/26 11:46:33;;;;;;;0.60;0.28;;;21.70;48.40;;;;;;5070809;28;20487;-70
2022/05/26 11:49:01;;;;;;;0.82;0.32;;;21.70;48.60;;;;;;5068235;28;20713;-68
2022/05/26 11:51:39;;;;;;;1.73;0.43;;;21.70;48.80;;;;;;5067277;28;20040;-69
2022/05/26 11:54:06;;;;;;;1.75;0.40;;;21.70;49.00;;;;;;5067420;28;20041;-70
2022/05/26 11:56:45;;;;;;;2.80;0.60;;;21.80;49.10;;;;;;5071041;28;20155;-69
2022/05/26 11:59:43;;;;;;;4.13;0.60;;;21.90;49.30;;;;;;5067576;28;20068;-71
2022/05/26 12:02:30;;;;;;;1.55;0.50;;;21.80;49.50;;;;;;5062102;28;20044;-71
2022/05/26 12:05:18;;;;;;;1.67;0.38;;;21.90;49.20;;;;;;5065787;28;20063;-71
2022/05/26 12:07:47;;;;;;;1.07;0.40;;;22.00;48.90;;;;;;5068670;28;20598;-70
2022/05/26 12:10:22;;;;;;;2.28;0.80;;;22.10;48.70;;;;;;5070647;28;20207;-70
2022/05/26 12:12:50;;;;;;;1.05;0.63;;;22.10;48.20;;;;;;5067444;28;20063;-70
2022/05/26 12:15:21;;;;;;;1.60;0.43;;;22.20;48.20;;;;;;5070578;28;20048;-71
2022/05/26 12:17:49;;;;;;;1.45;0.50;;;22.20;47.80;;;;;;5070963;28;20052;-70
2022/05/26 12:20:34;;;;;;;3.03;0.40;;;22.30;47.40;;;;;;5065945;28;20131;-69
2022/05/26 12:23:26;;;;;;;2.53;0.55;;;22.40;47.50;;;;;;5069497;28;20548;-68
2022/05/26 12:26:28;;;;;;;1.90;0.43;;;22.40;47.50;;;;;;5067826;28;20089;-71
2022/05/26 12:28:55;;;;;;;1.65;0.50;;;22.40;47.40;;;;;;5066225;28;20046;-70
2022/05/26 12:31:23;;;;;;;1.63;0.43;;;22.40;47.30;;;;;;5065770;28;20049;-72
2022/05/26 12:34:20;;;;;;;3.10;0.50;;;22.40;46.90;;;;;;5065122;28;20999;-70
2022/05/26 12:37:04;;;;;;;0.88;0.38;;;22.40;46.50;;;;;;5067096;28;20048;-70
2022/05/26 12:40:07;;;;;;;1.85;0.40;;;22.50;46.60;;;;;;5064800;28;20048;-74
2022/05/26 12:42:49;;;;;;;2.15;0.30;;;22.50;46.80;;;;;;5066427;28;20131;-74
2022/05/26 12:45:36;;;;;;;2.85;0.50;;;22.50;46.50;;;;;;5068248;28;20044;-71
2022/05/26 12:48:25;;;;;;;1.35;0.38;;;22.60;46.80;;;;;;5066247;28;20052;-68
2022/05/26 12:50:53;;;;;;;1.63;0.40;;;22.60;46.70;;;;;;5064933;28;20124;-72
2022/05/26 12:53:26;;;;;;;3.92;0.55;;;22.60;46.80;;;;;;5065544;28;20040;-72
2022/05/26 12:56:00;;;;;;;2.78;0.40;;;22.60;46.80;;;;;;5064567;28;20397;-72
2022/05/26 12:58:37;;;;;;;2.60;0.50;;;22.70;46.70;;;;;;5065694;28;20045;-70
2022/05/26 13:01:06;;;;;;;1.50;0.50;;;22.70;46.80;;;;;;5063482;28;20075;-69
2022/05/26 13:03:38;;;;;;;1.15;0.40;;;22.70;47.10;;;;;;5065944;28;20408;-71
2022/05/26 13:06:08;;;;;;;1.42;0.30;;;22.80;47.10;;;;;;5068210;28;20045;-70
2022/05/26 13:08:45;;;;;;;1.20;0.30;;;22.80;47.40;;;;;;5068878;28;20052;-75
2022/05/26 13:11:15;;;;;;;1.13;0.30;;;22.70;47.50;;;;;;5071822;28;20070;-72
2022/05/26 13:13:44;;;;;;;;;;;22.60;47.70;;;;;;5069724;28;20439;-68
2022/05/26 13:16:21;;;;;;;;;;;22.60;48.30;;;;;;5070565;28;19955;-69
2022/05/26 13:18:48;;;;;;;0.85;0.30;;;22.50;48.50;;;;;;5070251;28;19929;-70
2022/05/26 13:21:16;;;;;;;2.38;0.65;;;22.50;48.70;;;;;;5067547;28;20049;-71
2022/05/26 13:23:43;;;;;;;2.15;0.40;;;22.40;48.70;;;;;;5064216;28;20033;-69
2022/05/26 13:26:12;;;;;;;1.95;0.50;;;22.40;48.90;;;;;;5063699;28;20141;-74
2022/05/26 13:28:41;;;;;;;;;;;22.30;48.80;;;;;;5063113;28;20048;-68
2022/05/26 13:33:57;;;;;;;2.90;0.55;;;22.30;48.80;;;;;;5065854;28;20391;-70
2022/05/26 13:36:31;;;;;;;0.85;0.40;;;22.20;48.60;;;;;;5071381;28;20044;-70
2022/05/26 13:39:05;;;;;;;4.82;0.93;;;22.20;48.70;;;;;;5066299;28;20047;-70
2022/05/26 13:41:33;;;;;;;2.05;0.45;;;22.20;48.70;;;;;;5068829;28;20101;-73
2022/05/26 13:44:04;;;;;;;1.08;0.50;;;22.20;48.40;;;;;;5067610;28;20713;-71
2022/05/26 13:46:38;;;;;;;1.70;0.55;;;22.30;47.90;;;;;;5062869;28;20134;-71
2022/05/26 13:49:18;;;;;;;1.38;0.50;;;22.40;47.60;;;;;;5057988;28;20139;-70
2022/05/26 13:51:48;;;;;;;0.75;0.40;;;22.40;47.60;;;;;;5068117;28;20040;-74
2022/05/26 13:54:29;;;;;;;2.20;0.50;;;22.50;47.40;;;;;;5062879;28;20151;-72